createdAt,value
2023-10-02T00:00:07.225Z,11.86
2023-10-02T00:03:41.480Z,11.85
2023-10-02T00:06:46.246Z,11.87
2023-10-02T00:09:51.844Z,11.87
2023-10-02T00:13:00.825Z,11.87
2023-10-02T00:16:05.864Z,11.91
2023-10-02T00:19:23.380Z,11.93
2023-10-02T00:22:43.225Z,11.94
2023-10-02T00:25:56.675Z,11.92
2023-10-02T00:29:00.914Z,11.92
2023-10-02T00:32:12.557Z,11.91
2023-10-02T00:35:17.948Z,11.91
2023-10-02T00:38:21.821Z,11.89
2023-10-02T00:41:25.842Z,11.85
2023-10-02T00:44:49.016Z,11.83
2023-10-02T00:47:54.958Z,11.75
2023-10-02T00:51:06.965Z,11.72
2023-10-02T00:54:25.082Z,11.73
2023-10-02T00:57:29.450Z,11.76
2023-10-02T01:00:38.476Z,11.80
2023-10-02T01:03:56.652Z,11.82
2023-10-02T01:07:13.469Z,11.83
2023-10-02T01:10:20.675Z,11.84
2023-10-02T01:13:29.110Z,11.85
2023-10-02T01:16:37.838Z,11.85
2023-10-02T01:19:56.827Z,11.89
2023-10-02T01:23:24.342Z,11.90
2023-10-02T01:26:30.076Z,11.89
2023-10-02T01:29:36.273Z,11.85
2023-10-02T01:33:08.778Z,11.80
2023-10-02T01:36:13.220Z,11.77
2023-10-02T01:39:17.225Z,11.73
2023-10-02T01:42:22.479Z,11.66
2023-10-02T01:45:35.964Z,11.54
2023-10-02T01:48:42.341Z,11.45
2023-10-02T01:51:51.724Z,11.30
2023-10-02T01:54:55.897Z,11.18
2023-10-02T01:58:18.745Z,11.16
2023-10-02T02:01:24.220Z,11.20
2023-10-02T02:04:30.007Z,11.22
2023-10-02T02:07:36.594Z,11.29
2023-10-02T02:10:41.303Z,11.39
2023-10-02T02:13:50.865Z,11.48
2023-10-02T02:16:54.896Z,11.49
2023-10-02T02:20:11.700Z,11.54
2023-10-02T02:23:17.183Z,11.63
2023-10-02T02:26:24.484Z,11.73
2023-10-02T02:29:30.108Z,11.81
2023-10-02T02:32:45.944Z,11.85
2023-10-02T02:35:50.319Z,11.89
2023-10-02T02:39:16.563Z,11.89
2023-10-02T02:42:23.797Z,11.93
2023-10-02T02:45:32.110Z,11.91
2023-10-02T02:48:45.487Z,11.91
2023-10-02T02:51:49.758Z,11.93
2023-10-02T02:55:00.309Z,11.91
2023-10-02T02:58:04.722Z,11.92
2023-10-02T03:01:16.460Z,11.89
2023-10-02T03:04:20.350Z,11.86
2023-10-02T03:07:31.755Z,11.81
2023-10-02T03:10:38.180Z,11.74
2023-10-02T03:13:42.189Z,11.70
2023-10-02T03:16:47.638Z,11.72
2023-10-02T03:19:52.224Z,11.75
2023-10-02T03:22:58.547Z,11.77
2023-10-02T03:26:09.132Z,11.73
2023-10-02T03:29:17.987Z,11.61
2023-10-02T03:32:24.702Z,11.43
2023-10-02T03:35:28.526Z,11.36
2023-10-02T03:38:34.599Z,11.28
2023-10-02T03:41:50.136Z,11.22
2023-10-02T03:44:55.866Z,11.19
2023-10-02T03:48:04.090Z,11.13
2023-10-02T03:51:09.198Z,11.12
2023-10-02T03:54:21.549Z,11.11
2023-10-02T03:57:50.537Z,11.06
2023-10-02T04:00:55.332Z,10.99
2023-10-02T04:04:20.422Z,10.88
2023-10-02T04:07:26.716Z,10.80
2023-10-02T04:10:50.652Z,10.78
2023-10-02T04:13:57.595Z,10.74
2023-10-02T04:17:12.346Z,10.73
2023-10-02T04:20:28.536Z,10.71
2023-10-02T04:23:39.595Z,10.68
2023-10-02T04:26:55.022Z,10.69
2023-10-02T04:30:21.955Z,10.75
2023-10-02T04:33:25.832Z,10.83
2023-10-02T04:36:36.210Z,10.94
2023-10-02T04:40:14.413Z,10.99
2023-10-02T04:43:23.618Z,11.08
2023-10-02T04:46:29.785Z,11.19
2023-10-02T04:49:33.474Z,11.28
2023-10-02T04:52:59.422Z,11.33
2023-10-02T04:56:15.270Z,11.40
2023-10-02T04:59:19.222Z,11.48
2023-10-02T05:02:25.902Z,11.60
2023-10-02T05:05:35.637Z,11.70
2023-10-02T05:08:42.804Z,11.78
2023-10-02T05:11:51.970Z,11.86
2023-10-02T05:14:56.341Z,11.94
2023-10-02T05:18:00.268Z,12.01
2023-10-02T05:21:03.011Z,12.10
2023-10-02T05:24:13.332Z,12.17
2023-10-02T05:27:28.867Z,12.23
2023-10-02T05:30:43.234Z,12.32
2023-10-02T05:33:49.977Z,12.41
2023-10-02T05:37:13.189Z,12.49
2023-10-02T05:40:39.871Z,12.59
2023-10-02T05:43:56.735Z,12.67
2023-10-02T05:47:06.900Z,12.77
2023-10-02T05:50:12.304Z,12.85
2023-10-02T05:53:17.240Z,12.95
2023-10-02T05:56:22.602Z,13.04
2023-10-02T05:59:26.847Z,13.12
2023-10-02T06:02:32.838Z,13.22
2023-10-02T06:05:43.716Z,13.29
2023-10-02T06:08:56.108Z,13.38
2023-10-02T06:12:07.195Z,13.44
2023-10-02T06:15:32.299Z,13.53
2023-10-02T06:18:39.689Z,13.62
2023-10-02T06:21:54.891Z,13.70
2023-10-02T06:24:58.873Z,13.81
2023-10-02T06:28:18.166Z,13.88
2023-10-02T06:31:32.532Z,13.92
2023-10-02T06:34:41.367Z,13.89
2023-10-02T06:37:47.320Z,13.87
2023-10-02T06:40:57.891Z,13.89
2023-10-02T06:44:16.558Z,13.97
2023-10-02T06:47:23.050Z,14.06
2023-10-02T06:50:32.204Z,14.16
2023-10-02T06:53:36.445Z,14.21
2023-10-02T06:56:44.106Z,14.25
2023-10-02T06:59:53.625Z,14.30
2023-10-02T07:02:59.475Z,14.41
2023-10-02T07:06:08.911Z,14.58
2023-10-02T07:09:13.480Z,14.72
2023-10-02T07:12:17.749Z,14.90
2023-10-02T07:15:23.678Z,15.10
2023-10-02T07:18:38.187Z,15.29
2023-10-02T07:21:42.428Z,15.45
2023-10-02T07:24:50.597Z,15.54
2023-10-02T07:27:58.433Z,15.63
2023-10-02T07:31:04.780Z,15.68
2023-10-02T07:34:09.371Z,15.72
2023-10-02T07:37:14.827Z,15.75
2023-10-02T07:40:20.799Z,15.81
2023-10-02T07:43:25.220Z,15.90
2023-10-02T07:46:30.655Z,16.09
2023-10-02T07:49:35.668Z,16.31
2023-10-02T07:52:40.328Z,16.58
2023-10-02T07:55:48.403Z,16.84
2023-10-02T07:58:56.714Z,17.06
2023-10-02T08:02:21.991Z,17.22
2023-10-02T08:05:26.974Z,17.37
2023-10-02T08:08:34.418Z,17.42
2023-10-02T08:11:39.784Z,17.40
2023-10-02T08:14:44.294Z,17.36
2023-10-02T08:18:15.828Z,17.33
2023-10-02T08:21:24.788Z,17.33
2023-10-02T08:24:28.754Z,17.36
2023-10-02T08:27:33.464Z,17.37
2023-10-02T08:30:40.400Z,17.37
2023-10-02T08:34:00.709Z,17.43
2023-10-02T08:37:09.926Z,17.51
2023-10-02T08:40:16.092Z,17.58
2023-10-02T08:43:24.054Z,17.69
2023-10-02T08:46:27.939Z,17.78
2023-10-02T08:49:32.926Z,17.87
2023-10-02T08:52:42.990Z,17.93
2023-10-02T08:55:56.090Z,18.05
2023-10-02T08:59:27.784Z,18.11
2023-10-02T09:02:32.284Z,18.19
2023-10-02T09:05:38.080Z,18.27
2023-10-02T09:09:03.614Z,18.26
2023-10-02T09:12:16.341Z,18.33
2023-10-02T09:15:34.038Z,18.38
2023-10-02T09:19:00.213Z,18.51
2023-10-02T09:22:08.918Z,18.59
2023-10-02T09:25:17.073Z,18.56
2023-10-02T09:28:41.991Z,18.59
2023-10-02T09:31:48.381Z,18.65
2023-10-02T09:35:35.226Z,18.76
2023-10-02T09:38:38.538Z,18.94
2023-10-02T09:41:44.002Z,18.99
2023-10-02T09:44:51.351Z,19.13
2023-10-02T09:51:07.837Z,19.61
2023-10-02T09:54:29.731Z,19.79
2023-10-02T09:57:39.602Z,19.97
2023-10-02T10:01:35.957Z,20.17
2023-10-02T10:05:20.777Z,20.34
2023-10-02T10:08:30.378Z,20.43
2023-10-02T10:11:35.375Z,20.51
2023-10-02T10:14:40.124Z,20.66
2023-10-02T10:18:02.849Z,20.98
2023-10-02T10:21:57.948Z,21.24
2023-10-02T10:25:18.091Z,21.41
2023-10-02T10:28:31.209Z,21.48
2023-10-02T10:31:34.709Z,21.47
2023-10-02T10:35:14.501Z,21.65
2023-10-02T10:38:38.290Z,21.84
2023-10-02T10:41:55.405Z,21.95
2023-10-02T10:45:11.181Z,22.18
2023-10-02T10:48:23.719Z,22.26
2023-10-02T10:51:34.773Z,22.35
2023-10-02T10:54:57.826Z,22.32
2023-10-02T11:01:14.918Z,22.13
2023-10-02T11:04:27.942Z,22.23
2023-10-02T11:07:38.607Z,22.29
2023-10-02T11:10:42.909Z,22.36
2023-10-02T11:13:55.322Z,22.47
2023-10-02T11:17:03.148Z,22.56
2023-10-02T11:20:08.874Z,22.67
2023-10-02T11:23:13.370Z,22.78
2023-10-02T11:26:17.265Z,23.04
2023-10-02T11:29:23.274Z,23.26
2023-10-02T11:32:55.815Z,23.38
2023-10-02T11:36:15.319Z,23.38
2023-10-02T11:39:21.195Z,23.31
2023-10-02T11:42:25.421Z,23.18
2023-10-02T11:45:29.590Z,23.25
2023-10-02T11:48:35.207Z,23.35
2023-10-02T11:51:38.975Z,23.30
2023-10-02T11:54:42.990Z,23.13
2023-10-02T11:57:50.951Z,23.08
2023-10-02T12:00:55.036Z,23.11
2023-10-02T12:04:00.119Z,23.08
2023-10-02T12:07:05.433Z,23.02
2023-10-02T12:10:09.874Z,22.85
2023-10-02T12:13:14.411Z,22.71
2023-10-02T12:16:18.772Z,22.53
2023-10-02T12:19:25.525Z,22.50
2023-10-02T12:22:29.442Z,23.00
2023-10-02T12:25:33.452Z,23.32
2023-10-02T12:28:37.747Z,23.46
2023-10-02T12:31:41.837Z,23.43
2023-10-02T12:34:46.747Z,23.73
2023-10-02T12:37:51.611Z,24.81
2023-10-02T12:40:55.355Z,25.92
2023-10-02T12:43:59.842Z,25.14
2023-10-02T12:47:03.909Z,24.52
2023-10-02T12:50:12.437Z,24.31
2023-10-02T12:53:16.663Z,24.25
2023-10-02T12:56:23.242Z,24.20
2023-10-02T12:59:26.854Z,24.03
2023-10-02T13:02:30.886Z,23.75
2023-10-02T13:05:36.954Z,23.50
2023-10-02T13:08:43.540Z,23.42
2023-10-02T13:11:48.533Z,23.42
2023-10-02T13:14:55.642Z,23.35
2023-10-02T13:18:02.714Z,23.17
2023-10-02T13:21:10.072Z,22.90
2023-10-02T13:24:17.293Z,22.70
2023-10-02T13:27:22.955Z,22.46
2023-10-02T13:30:31.620Z,22.20
2023-10-02T13:33:35.989Z,22.10
2023-10-02T13:36:41.894Z,22.06
2023-10-02T13:39:46.492Z,21.93
2023-10-02T13:42:50.822Z,21.84
2023-10-02T13:45:55.039Z,21.83
2023-10-02T13:48:59.819Z,21.92
2023-10-02T13:52:05.937Z,22.10
2023-10-02T13:55:23.656Z,22.11
2023-10-02T13:58:29.588Z,22.02
2023-10-02T14:01:35.139Z,21.95
2023-10-02T14:04:39.398Z,21.82
2023-10-02T14:07:45.020Z,21.69
2023-10-02T14:10:49.109Z,21.53
2023-10-02T14:13:55.345Z,21.44
2023-10-02T14:16:59.834Z,21.30
2023-10-02T14:20:03.581Z,21.21
2023-10-02T14:23:09.012Z,21.18
2023-10-02T14:26:13.010Z,21.30
2023-10-02T14:29:17.306Z,21.73
2023-10-02T14:32:21.526Z,22.09
2023-10-02T14:35:42.977Z,22.32
2023-10-02T14:38:59.536Z,22.44
2023-10-02T14:42:05.530Z,22.59
2023-10-02T14:45:10.971Z,22.81
2023-10-02T14:48:32.191Z,22.93
2023-10-02T14:51:42.428Z,22.75
2023-10-02T14:54:48.518Z,22.40
2023-10-02T14:57:52.063Z,22.18
2023-10-02T15:00:56.404Z,21.95
2023-10-02T15:04:00.152Z,21.71
2023-10-02T15:07:06.541Z,21.40
2023-10-02T15:10:13.034Z,21.12
2023-10-02T15:13:18.462Z,20.90
2023-10-02T15:16:22.306Z,20.77
2023-10-02T15:19:26.614Z,20.67
2023-10-02T15:22:34.391Z,20.61
2023-10-02T15:25:41.679Z,20.57
2023-10-02T15:28:45.522Z,20.53
2023-10-02T15:31:50.279Z,20.44
2023-10-02T15:34:53.953Z,20.31
2023-10-02T15:38:03.247Z,20.23
2023-10-02T15:41:28.128Z,20.11
2023-10-02T15:44:32.667Z,20.01
2023-10-02T15:47:36.546Z,19.88
2023-10-02T15:50:41.761Z,19.78
2023-10-02T15:53:47.063Z,19.69
2023-10-02T15:56:53.910Z,19.62
2023-10-02T15:59:57.779Z,19.58
2023-10-02T16:03:03.333Z,19.52
2023-10-02T16:06:10.254Z,19.42
2023-10-02T16:09:14.502Z,19.33
2023-10-02T16:12:19.593Z,19.18
2023-10-02T16:15:26.739Z,19.03
2023-10-02T16:18:30.737Z,18.84
2023-10-02T16:21:35.076Z,18.67
2023-10-02T16:24:38.593Z,18.50
2023-10-02T16:27:46.010Z,18.33
2023-10-02T16:30:51.654Z,18.17
2023-10-02T16:33:56.011Z,18.00
2023-10-02T16:37:00.159Z,17.87
2023-10-02T16:40:06.064Z,17.73
2023-10-02T16:43:13.023Z,17.60
2023-10-02T16:46:19.170Z,17.48
2023-10-02T16:49:22.764Z,17.33
2023-10-02T16:52:26.746Z,17.23
2023-10-02T16:55:31.455Z,17.13
2023-10-02T16:58:38.067Z,17.04
2023-10-02T17:01:42.376Z,16.97
2023-10-02T17:04:47.165Z,16.88
2023-10-02T17:07:52.025Z,16.81
2023-10-02T17:10:56.228Z,16.72
2023-10-02T17:14:01.300Z,16.65
2023-10-02T17:17:05.503Z,16.60
2023-10-02T17:20:15.136Z,16.52
2023-10-02T17:23:19.581Z,16.44
2023-10-02T17:26:23.874Z,16.33
2023-10-02T17:29:30.085Z,16.25
2023-10-02T17:32:34.032Z,16.18
2023-10-02T17:35:38.794Z,16.08
2023-10-02T17:38:43.038Z,16.02
2023-10-02T17:41:47.082Z,15.95
2023-10-02T17:44:52.029Z,15.89
2023-10-02T17:47:57.520Z,15.79
2023-10-02T17:51:01.232Z,15.66
2023-10-02T17:54:05.807Z,15.58
2023-10-02T17:57:10.552Z,15.47
2023-10-02T18:00:19.110Z,15.38
2023-10-02T18:03:23.045Z,15.30
2023-10-02T18:06:27.651Z,15.26
2023-10-02T18:09:31.138Z,15.21
2023-10-02T18:12:36.295Z,15.16
2023-10-02T18:15:41.474Z,15.11
2023-10-02T18:18:45.992Z,15.06
2023-10-02T18:21:49.638Z,15.01
2023-10-02T18:24:53.783Z,15.00
2023-10-02T18:28:00.905Z,15.02
2023-10-02T18:31:06.361Z,15.08
2023-10-02T18:34:10.889Z,15.12
2023-10-02T18:37:14.948Z,15.09
2023-10-02T18:40:19.156Z,14.98
2023-10-02T18:43:23.021Z,14.90
2023-10-02T18:46:27.927Z,14.86
2023-10-02T18:49:34.642Z,14.80
2023-10-02T18:52:40.933Z,14.74
2023-10-02T18:55:45.149Z,14.72
2023-10-02T18:58:49.759Z,14.72
2023-10-02T19:01:55.310Z,14.69
2023-10-02T19:05:00.375Z,14.67
2023-10-02T19:08:05.894Z,14.66
2023-10-02T19:11:16.541Z,14.61
2023-10-02T19:14:23.139Z,14.52
2023-10-02T19:17:28.534Z,14.47
2023-10-02T19:20:32.729Z,14.46
2023-10-02T19:23:37.084Z,14.40
2023-10-02T19:26:42.049Z,14.37
2023-10-02T19:29:46.477Z,14.36
2023-10-02T19:32:51.862Z,14.33
2023-10-02T19:35:55.751Z,14.30
2023-10-02T19:38:59.845Z,14.27
2023-10-02T19:42:04.947Z,14.26
2023-10-02T19:45:10.375Z,14.26
2023-10-02T19:48:15.598Z,14.29
2023-10-02T19:51:19.884Z,14.33
2023-10-02T19:54:23.868Z,14.33
2023-10-02T19:57:27.748Z,14.33
2023-10-02T20:00:31.231Z,14.31
2023-10-02T20:03:36.969Z,14.25
2023-10-02T20:06:41.424Z,14.16
2023-10-02T20:09:46.150Z,14.12
2023-10-02T20:12:50.248Z,14.09
2023-10-02T20:15:54.576Z,14.07
2023-10-02T20:18:59.971Z,14.02
2023-10-02T20:22:05.007Z,13.95
2023-10-02T20:25:10.488Z,13.87
2023-10-02T20:28:15.281Z,13.79
2023-10-02T20:31:19.264Z,13.75
2023-10-02T20:34:36.519Z,13.72
2023-10-02T20:37:42.611Z,13.77
2023-10-02T20:40:47.171Z,13.82
2023-10-02T20:43:51.897Z,13.80
2023-10-02T20:47:11.526Z,13.88
2023-10-02T20:50:20.442Z,13.91
2023-10-02T20:53:24.674Z,13.97
2023-10-02T20:56:29.424Z,13.95
2023-10-02T20:59:33.663Z,13.89
2023-10-02T21:02:37.486Z,13.84
2023-10-02T21:05:44.365Z,13.76
2023-10-02T21:08:49.471Z,13.75
2023-10-02T21:11:55.308Z,13.73
2023-10-02T21:14:58.967Z,13.69
2023-10-02T21:18:03.785Z,13.68
2023-10-02T21:21:08.877Z,13.68
2023-10-02T21:24:12.781Z,13.64
2023-10-02T21:27:16.653Z,13.67
2023-10-02T21:30:21.416Z,13.70
2023-10-02T21:33:25.540Z,13.69
2023-10-02T21:36:30.928Z,13.70
2023-10-02T21:39:35.247Z,13.72
2023-10-02T21:42:39.316Z,13.69
2023-10-02T21:45:44.206Z,13.67
2023-10-02T21:48:48.974Z,13.65
2023-10-02T21:51:54.212Z,13.68
2023-10-02T21:55:04.953Z,13.65
2023-10-02T21:58:08.740Z,13.60
2023-10-02T22:01:12.948Z,13.53
2023-10-02T22:04:17.364Z,13.50
2023-10-02T22:07:22.956Z,13.43
2023-10-02T22:10:26.720Z,13.36
2023-10-02T22:13:30.857Z,13.29
2023-10-02T22:16:39.361Z,13.27
2023-10-02T22:19:44.290Z,13.21
2023-10-02T22:22:51.182Z,13.17
2023-10-02T22:25:56.653Z,13.14
2023-10-02T22:29:00.964Z,13.15
2023-10-02T22:32:05.688Z,13.21
2023-10-02T22:35:12.091Z,13.25
2023-10-02T22:38:17.958Z,13.24
2023-10-02T22:41:21.629Z,13.28
2023-10-02T22:44:25.807Z,13.26
2023-10-02T22:47:31.542Z,13.19
2023-10-02T22:50:35.756Z,13.15
2023-10-02T22:53:40.941Z,13.12
2023-10-02T22:56:45.782Z,13.08
2023-10-02T22:59:49.656Z,13.09
2023-10-02T23:02:56.819Z,13.11
2023-10-02T23:06:00.446Z,13.07
2023-10-02T23:09:06.404Z,13.03
2023-10-02T23:12:10.008Z,13.03
2023-10-02T23:15:16.141Z,13.10
2023-10-02T23:18:19.914Z,13.17
2023-10-02T23:21:23.916Z,13.26
2023-10-02T23:24:28.882Z,13.28
2023-10-02T23:27:33.881Z,13.31
2023-10-02T23:30:39.159Z,13.25
2023-10-02T23:33:43.523Z,13.20
2023-10-02T23:36:48.778Z,13.14
2023-10-02T23:39:54.446Z,13.12
2023-10-02T23:43:01.398Z,13.10
2023-10-02T23:46:05.969Z,13.05
2023-10-02T23:49:14.862Z,13.05
2023-10-02T23:52:19.815Z,13.04
2023-10-02T23:55:25.717Z,13.02
2023-10-02T23:58:30.121Z,13.02
